createdAt,value
2023-01-27T00:01:38.996Z,-0.15
2023-01-27T00:04:07.597Z,-0.14
2023-01-27T00:06:36.231Z,-0.13
2023-01-27T00:09:06.395Z,-0.14
2023-01-27T00:11:53.693Z,-0.14
2023-01-27T00:14:21.745Z,-0.15
2023-01-27T00:16:50.040Z,-0.12
2023-01-27T00:19:19.975Z,-0.06
2023-01-27T00:22:07.004Z,-0.01
2023-01-27T00:24:38.079Z,0.07
2023-01-27T00:27:09.120Z,0.15
2023-01-27T00:29:40.194Z,0.24
2023-01-27T00:32:27.043Z,0.28
2023-01-27T00:34:55.088Z,0.33
2023-01-27T00:37:24.175Z,0.37
2023-01-27T00:39:52.079Z,0.40
2023-01-27T00:42:20.245Z,0.42
2023-01-27T00:45:06.974Z,0.44
2023-01-27T00:47:35.578Z,0.44
2023-01-27T00:50:04.508Z,0.45
2023-01-27T00:52:32.506Z,0.43
2023-01-27T00:55:00.523Z,0.41
2023-01-27T00:57:29.315Z,0.42
2023-01-27T00:59:59.524Z,0.40
2023-01-27T01:02:27.868Z,0.42
2023-01-27T01:04:56.093Z,0.41
2023-01-27T01:07:25.149Z,0.41
2023-01-27T01:09:53.106Z,0.37
2023-01-27T01:12:22.674Z,0.35
2023-01-27T01:14:51.393Z,0.28
2023-01-27T01:17:19.779Z,0.24
2023-01-27T01:19:47.937Z,0.25
2023-01-27T01:22:15.891Z,0.22
2023-01-27T01:24:43.867Z,0.18
2023-01-27T01:27:14.141Z,0.17
2023-01-27T01:29:42.108Z,0.15
2023-01-27T01:32:11.646Z,0.15
2023-01-27T01:34:39.629Z,0.18
2023-01-27T01:37:07.726Z,0.19
2023-01-27T01:39:37.823Z,0.13
2023-01-27T01:42:07.265Z,0.10
2023-01-27T01:44:35.267Z,0.07
2023-01-27T01:47:03.155Z,0.07
2023-01-27T01:49:36.631Z,0.06
2023-01-27T01:52:07.888Z,0.04
2023-01-27T01:54:45.008Z,0.09
2023-01-27T01:57:17.904Z,0.11
2023-01-27T01:59:51.871Z,0.14
2023-01-27T02:02:22.253Z,0.13
2023-01-27T02:04:55.081Z,0.13
2023-01-27T02:07:45.065Z,0.14
2023-01-27T02:10:15.787Z,0.15
2023-01-27T02:12:43.896Z,0.16
2023-01-27T02:15:12.489Z,0.20
2023-01-27T02:17:42.141Z,0.21
2023-01-27T02:20:24.218Z,0.24
2023-01-27T02:23:03.717Z,0.31
2023-01-27T02:25:34.659Z,0.32
2023-01-27T02:28:07.431Z,0.36
2023-01-27T02:30:35.572Z,0.41
2023-01-27T02:33:14.963Z,0.45
2023-01-27T02:35:47.671Z,0.47
2023-01-27T02:38:15.572Z,0.48
2023-01-27T02:40:43.466Z,0.47
2023-01-27T02:43:14.259Z,0.44
2023-01-27T02:45:42.896Z,0.42
2023-01-27T02:48:10.868Z,0.45
2023-01-27T02:50:38.818Z,0.46
2023-01-27T02:53:07.462Z,0.49
2023-01-27T02:55:37.407Z,0.51
2023-01-27T02:58:06.318Z,0.53
2023-01-27T03:00:43.995Z,0.55
2023-01-27T03:03:13.759Z,0.56
2023-01-27T03:05:41.753Z,0.56
2023-01-27T03:08:10.062Z,0.59
2023-01-27T03:10:38.302Z,0.59
2023-01-27T03:13:06.359Z,0.55
2023-01-27T03:15:53.344Z,0.54
2023-01-27T03:18:22.685Z,0.53
2023-01-27T03:20:50.789Z,0.54
2023-01-27T03:23:19.554Z,0.56
2023-01-27T03:25:50.695Z,0.59
2023-01-27T03:28:19.104Z,0.60
2023-01-27T03:31:19.649Z,0.60
2023-01-27T03:33:58.276Z,0.57
2023-01-27T03:36:52.246Z,0.54
2023-01-27T03:39:40.185Z,0.54
2023-01-27T03:42:27.046Z,0.53
2023-01-27T03:45:15.223Z,0.56
2023-01-27T03:47:43.352Z,0.58
2023-01-27T03:50:13.910Z,0.59
2023-01-27T03:53:02.996Z,0.58
2023-01-27T03:55:31.810Z,0.57
2023-01-27T03:58:14.596Z,0.54
2023-01-27T04:00:43.215Z,0.52
2023-01-27T04:03:29.843Z,0.46
2023-01-27T04:06:16.764Z,0.39
2023-01-27T04:08:44.855Z,0.33
2023-01-27T04:11:32.056Z,0.23
2023-01-27T04:14:02.009Z,0.16
2023-01-27T04:16:30.300Z,0.13
2023-01-27T04:18:59.488Z,0.09
2023-01-27T04:21:29.987Z,0.05
2023-01-27T04:23:57.972Z,0.01
2023-01-27T04:26:26.251Z,-0.03
2023-01-27T04:28:54.310Z,-0.04
2023-01-27T04:31:22.459Z,-0.05
2023-01-27T04:33:50.991Z,-0.07
2023-01-27T04:36:21.667Z,-0.08
2023-01-27T04:38:49.770Z,-0.10
2023-01-27T04:41:17.727Z,-0.14
2023-01-27T04:43:45.853Z,-0.18
2023-01-27T04:46:13.816Z,-0.19
2023-01-27T04:48:41.748Z,-0.17
2023-01-27T04:51:09.623Z,-0.18
2023-01-27T04:53:37.700Z,-0.20
2023-01-27T04:56:14.868Z,-0.22
2023-01-27T04:58:42.843Z,-0.23
2023-01-27T05:01:10.767Z,-0.23
2023-01-27T05:03:39.570Z,-0.27
2023-01-27T05:06:08.732Z,-0.29
2023-01-27T05:08:36.824Z,-0.28
2023-01-27T05:11:05.247Z,-0.31
2023-01-27T05:13:33.644Z,-0.31
2023-01-27T05:16:16.376Z,-0.31
2023-01-27T05:18:44.790Z,-0.35
2023-01-27T05:21:16.503Z,-0.38
2023-01-27T05:23:45.029Z,-0.39
2023-01-27T05:26:21.138Z,-0.42
2023-01-27T05:28:49.801Z,-0.44
2023-01-27T05:31:22.971Z,-0.43
2023-01-27T05:33:52.633Z,-0.42
2023-01-27T05:36:22.254Z,-0.39
2023-01-27T05:38:50.388Z,-0.37
2023-01-27T05:41:19.060Z,-0.40
2023-01-27T05:43:51.132Z,-0.39
2023-01-27T05:46:21.128Z,-0.40
2023-01-27T05:48:50.945Z,-0.42
2023-01-27T05:51:20.648Z,-0.41
2023-01-27T05:53:48.950Z,-0.41
2023-01-27T05:56:18.693Z,-0.43
2023-01-27T05:58:49.048Z,-0.44
2023-01-27T06:01:24.560Z,-0.43
2023-01-27T06:03:52.577Z,-0.42
2023-01-27T06:06:23.800Z,-0.42
2023-01-27T06:08:52.161Z,-0.41
2023-01-27T06:11:20.647Z,-0.41
2023-01-27T06:13:49.855Z,-0.42
2023-01-27T06:16:19.326Z,-0.43
2023-01-27T06:18:47.775Z,-0.42
2023-01-27T06:21:16.229Z,-0.42
2023-01-27T06:23:44.422Z,-0.42
2023-01-27T06:26:16.360Z,-0.43
2023-01-27T06:28:44.562Z,-0.41
2023-01-27T06:31:14.684Z,-0.42
2023-01-27T06:33:42.967Z,-0.45
2023-01-27T06:36:12.863Z,-0.50
2023-01-27T06:38:40.981Z,-0.51
2023-01-27T06:41:09.032Z,-0.53
2023-01-27T06:43:40.940Z,-0.53
2023-01-27T06:46:09.073Z,-0.53
2023-01-27T06:48:38.138Z,-0.54
2023-01-27T06:51:06.674Z,-0.55
2023-01-27T06:53:37.476Z,-0.55
2023-01-27T06:56:06.221Z,-0.53
2023-01-27T06:58:36.845Z,-0.50
2023-01-27T07:01:06.022Z,-0.49
2023-01-27T07:06:01.149Z,-0.44
2023-01-27T07:08:29.577Z,-0.41
2023-01-27T07:10:57.806Z,-0.40
2023-01-27T07:13:26.227Z,-0.41
2023-01-27T07:15:56.341Z,-0.40
2023-01-27T07:18:24.425Z,-0.44
2023-01-27T07:20:52.895Z,-0.44
2023-01-27T07:23:21.226Z,-0.44
2023-01-27T07:25:49.659Z,-0.46
2023-01-27T07:28:20.572Z,-0.47
2023-01-27T07:30:48.802Z,-0.50
2023-01-27T07:33:17.740Z,-0.50
2023-01-27T07:35:48.377Z,-0.50
2023-01-27T07:38:16.529Z,-0.51
2023-01-27T07:40:44.504Z,-0.51
2023-01-27T07:43:12.669Z,-0.50
2023-01-27T07:45:41.779Z,-0.48
2023-01-27T07:48:10.002Z,-0.48
2023-01-27T12:31:55.430Z,0.39
2023-01-27T12:34:26.605Z,0.43
2023-01-27T12:36:55.073Z,0.49
2023-01-27T12:39:29.858Z,0.53
2023-01-27T12:41:58.160Z,0.67
2023-01-27T12:44:28.973Z,0.80
2023-01-27T12:47:00.191Z,0.91
2023-01-27T12:49:36.222Z,1.05
2023-01-27T12:52:05.278Z,1.11
2023-01-27T12:54:35.501Z,0.97
2023-01-27T12:57:12.694Z,0.90
2023-01-27T12:59:55.384Z,0.88
2023-01-27T13:02:25.279Z,0.80
2023-01-27T13:05:03.606Z,0.68
2023-01-27T13:07:51.649Z,0.62
2023-01-27T13:10:23.869Z,0.56
2023-01-27T13:12:56.442Z,0.60
2023-01-27T13:15:26.137Z,0.64
2023-01-27T13:18:11.717Z,0.67
2023-01-27T13:20:48.608Z,0.65
2023-01-27T13:23:35.174Z,0.67
2023-01-27T13:26:13.119Z,0.71
2023-01-27T13:28:54.230Z,0.72
2023-01-27T13:31:33.320Z,0.67
2023-01-27T13:34:05.780Z,0.58
2023-01-27T13:36:54.072Z,0.50
2023-01-27T13:39:40.766Z,0.41
2023-01-27T13:42:42.565Z,0.34
2023-01-27T13:45:29.651Z,0.35
2023-01-27T13:48:00.245Z,0.48
2023-01-27T13:50:52.951Z,0.68
2023-01-27T13:53:20.967Z,0.84
2023-01-27T13:56:14.602Z,0.75
2023-01-27T13:58:58.421Z,0.65
2023-01-27T14:01:45.223Z,0.48
2023-01-27T14:04:35.582Z,0.31
2023-01-27T14:07:25.763Z,0.21
2023-01-27T14:10:17.202Z,0.19
2023-01-27T14:12:47.376Z,0.11
2023-01-27T14:15:26.380Z,-0.10
2023-01-27T14:18:24.576Z,-0.32
2023-01-27T14:21:00.310Z,-0.42
2023-01-27T14:23:43.086Z,-0.48
2023-01-27T14:26:51.530Z,-0.49
2023-01-27T14:29:31.197Z,-0.57
2023-01-27T14:32:29.876Z,-0.67
2023-01-27T14:35:36.353Z,-0.79
2023-01-27T14:38:10.674Z,-0.88
2023-01-27T14:41:12.782Z,-0.90
2023-01-27T14:44:16.136Z,-0.89
2023-01-27T14:46:50.471Z,-1.03
2023-01-27T14:49:40.761Z,-1.08
2023-01-27T14:52:31.905Z,-1.16
2023-01-27T14:55:37.725Z,-1.07
2023-01-27T14:58:08.934Z,-1.15
2023-01-27T15:00:56.174Z,-1.23
2023-01-27T15:03:50.453Z,-1.28
2023-01-27T15:06:29.706Z,-1.34
2023-01-27T15:09:19.687Z,-1.38
2023-01-27T15:12:06.231Z,-1.45
2023-01-27T15:14:49.411Z,-1.46
2023-01-27T15:17:21.420Z,-1.50
2023-01-27T15:20:01.826Z,-1.54
2023-01-27T15:22:37.029Z,-1.58
2023-01-27T15:25:31.001Z,-1.59
2023-01-27T15:28:01.724Z,-1.62
2023-01-27T15:30:33.308Z,-1.60
2023-01-27T15:33:01.585Z,-1.48
2023-01-27T15:35:38.075Z,-1.32
2023-01-27T15:38:08.316Z,-1.19
2023-01-27T15:41:11.971Z,-1.04
2023-01-27T15:43:44.173Z,-1.05
2023-01-27T15:46:38.924Z,-1.18
2023-01-27T15:49:15.382Z,-1.27
2023-01-27T20:00:28.239Z,-2.96
2023-01-27T20:02:56.840Z,-2.83
2023-01-27T20:05:26.140Z,-2.79
2023-01-27T20:07:55.593Z,-2.75
2023-01-27T20:10:28.144Z,-2.63
2023-01-27T20:12:57.902Z,-2.46
2023-01-27T20:15:27.435Z,-2.37
2023-01-27T20:17:55.619Z,-2.20
2023-01-27T20:20:24.118Z,-2.23
2023-01-27T20:22:53.074Z,-2.27
2023-01-27T20:25:24.060Z,-2.20
2023-01-27T20:27:54.700Z,-2.13
2023-01-27T20:30:27.554Z,-2.04
2023-01-27T20:32:56.482Z,-1.97
2023-01-27T20:35:24.931Z,-1.92
2023-01-27T20:37:53.191Z,-1.87
2023-01-27T20:40:23.171Z,-1.82
2023-01-27T20:42:51.484Z,-1.73
2023-01-27T20:45:19.545Z,-1.68
2023-01-27T20:47:51.321Z,-1.60
2023-01-27T20:50:20.017Z,-1.52
2023-01-27T20:52:51.181Z,-1.46
2023-01-27T20:55:21.716Z,-1.42
2023-01-27T20:57:50.731Z,-1.34
2023-01-27T21:00:20.591Z,-1.22
2023-01-27T21:02:48.938Z,-1.14
2023-01-27T21:05:19.271Z,-1.17
2023-01-27T21:07:47.478Z,-1.38
2023-01-27T21:10:18.869Z,-1.56
2023-01-27T21:13:06.607Z,-1.63
2023-01-27T21:15:35.677Z,-1.72
2023-01-27T21:18:03.899Z,-1.80
2023-01-27T21:20:31.877Z,-1.89
2023-01-27T21:22:59.817Z,-2.02
2023-01-27T21:25:29.603Z,-2.07
2023-01-27T21:27:59.924Z,-1.97
2023-01-27T21:30:30.105Z,-1.80
2023-01-27T21:32:58.075Z,-1.72
2023-01-27T21:35:26.418Z,-1.63
2023-01-27T21:37:54.369Z,-1.52
2023-01-27T21:40:22.324Z,-1.42
2023-01-27T21:43:09.136Z,-1.42
2023-01-27T21:45:37.032Z,-1.47
2023-01-27T21:48:05.278Z,-1.57
2023-01-27T21:50:33.946Z,-1.59
2023-01-27T21:53:07.433Z,-1.67
2023-01-27T21:55:35.467Z,-1.72
2023-01-27T21:58:03.431Z,-1.73
2023-01-27T22:00:48.979Z,-1.72
2023-01-27T22:03:17.309Z,-1.75
2023-01-27T22:05:45.792Z,-1.77
2023-01-27T22:08:15.828Z,-1.90
2023-01-27T22:10:43.906Z,-2.06
2023-01-27T22:13:12.004Z,-2.22
2023-01-27T22:15:40.821Z,-2.30
2023-01-27T22:18:09.113Z,-2.37
2023-01-27T22:20:37.219Z,-2.46
2023-01-27T22:23:05.486Z,-2.48
2023-01-27T22:25:36.059Z,-2.56
2023-01-27T22:28:04.117Z,-2.61
2023-01-27T22:30:32.755Z,-2.61
2023-01-27T22:33:05.510Z,-2.61
2023-01-27T22:35:33.739Z,-2.65
2023-01-27T22:38:02.638Z,-2.64
2023-01-27T22:40:32.695Z,-2.64
2023-01-27T22:43:00.694Z,-2.69
2023-01-27T22:45:28.751Z,-2.70
2023-01-27T22:47:57.754Z,-2.72
2023-01-27T22:50:26.026Z,-2.70
2023-01-27T22:52:54.227Z,-2.64
2023-01-27T22:55:22.351Z,-2.59
2023-01-27T22:57:51.138Z,-2.54
2023-01-27T23:00:19.759Z,-2.47
2023-01-27T23:02:47.962Z,-2.39
2023-01-27T23:05:17.729Z,-2.40
2023-01-27T23:07:47.531Z,-2.41
2023-01-27T23:10:16.749Z,-2.41
2023-01-27T23:12:44.721Z,-2.43
2023-01-27T23:15:13.224Z,-2.54
2023-01-27T23:17:41.916Z,-2.57
2023-01-27T23:20:10.883Z,-2.66
2023-01-27T23:22:39.730Z,-2.69
2023-01-27T23:25:08.417Z,-2.65
2023-01-27T23:27:36.929Z,-2.58
2023-01-27T23:30:09.133Z,-2.58
2023-01-27T23:32:40.304Z,-2.59
2023-01-27T23:35:09.044Z,-2.59
2023-01-27T23:37:37.356Z,-2.61
2023-01-27T23:40:07.702Z,-2.58
2023-01-27T23:42:35.988Z,-2.65
2023-01-27T23:45:04.588Z,-2.67
2023-01-27T23:47:32.730Z,-2.63
2023-01-27T23:50:00.765Z,-2.62
2023-01-27T23:52:29.960Z,-2.59
2023-01-27T23:54:58.078Z,-2.49
